Station: Oenpelli Airport  

  Atmospheric Gas Attenuation - ITU Rec 676-11   ----------------- dB/100km -----------------
Date Time Temp RH % AH g/m3 Dew Point Wind Direction Speed kph Gust kph Barometer mB Rainfall Since 9am 24GHz 47GHz 76GHz 122GHz 134GHz 241GHz
05/09 07:00 22.8 94 19.1 21.8 0 0 1017 0 41.4 41.5 80.2 212.2 233.7 811.5
05/09 06:50 22.6 93 18.68 21.4 0 0 1016.9 0 40.5 40.8 78.4 207.2 227.6 790.3
05/09 06:40 22.8 93 18.9 21.6 0 0 1016.8 0 41.0 41.1 79.2 209.5 230.5 800.3
05/09 06:30 22.7 94 18.99 21.7 0 0 1016.7 0 41.2 41.3 79.8 211.0 232.2 806.3
05/09 06:20 22.6 94 18.88 21.6 0 0 1016.5 0 40.9 41.1 79.3 209.8 230.8 801.2
05/09 06:10 22.6 93 18.68 21.4 0 0 1016.4 0 40.5 40.7 78.3 207.2 227.5 790.0
05/09 06:00 22.6 93 18.68 21.4 0 0 1016.4 0 40.5 40.7 78.3 207.2 227.5 790.0
05/09 05:50 22.8 92 18.69 21.4 0 0 1016.3 0 40.5 40.6 78.2 206.7 227.1 788.4
05/09 05:40 22.8 92 18.69 21.4 0 0 1016.1 0 40.5 40.6 78.2 206.7 227.0 788.3
05/09 05:30 23 90 18.5 21.3 0 0 1016 0 40.1 40.2 77.0 203.7 223.4 775.7
05/09 05:20 23.3 91 19.03 21.7 2 4 1015.9 0 41.2 41.0 79.3 209.7 230.9 801.7
05/09 05:10 23.3 90 18.82 21.6 2 4 1015.9 0 40.7 40.6 78.3 207.0 227.5 790.1
05/09 05:00 23.3 90 18.82 21.6 0 0 1015.8 0 40.7 40.6 78.2 206.9 227.5 790.0
05/09 04:50 23.4 90 18.92 21.6 0 0 1015.8 0 40.9 40.8 78.6 208.0 228.8 794.5
05/09 04:40 23.4 90 18.92 21.7 2 4 1015.8 0 40.9 40.8 78.6 208.0 228.8 794.5
05/09 04:30 23.3 91 19.03 21.7 4 6 1015.7 0 41.2 41.0 79.3 209.6 230.8 801.5
05/09 04:20 23.1 91 18.81 21.5 2 7 1015.7 0 40.7 40.7 78.4 207.3 228.0 791.5
05/09 04:10 23.4 88 18.5 21.3 0 2 1015.8 0 40.0 40.0 76.6 202.6 222.2 771.5
05/09 04:00 24 88 19.14 21.9 0 4 1015.7 0 41.3 40.9 79.1 209.1 230.4 800.1
05/09 03:50 23.9 87 18.82 21.6 0 0 1015.8 0 40.7 40.3 77.6 205.3 225.7 783.8
05/09 03:40 23.6 88 18.72 21.5 0 0 1015.8 0 40.5 40.3 77.5 204.8 225.0 781.4
05/09 03:30 23.4 88 18.5 21.3 0 2 1015.9 0 40.0 40.0 76.6 202.6 222.2 771.6
05/09 03:20 23.4 86 18.08 20.9 2 2 1015.9 0 39.1 39.2 74.6 197.3 215.7 748.9
05/09 03:10 23.8 88 18.93 21.7 2 4 1015.9 0 40.9 40.6 78.3 207.0 227.7 790.9
05/09 03:00 23.2 90 18.71 21.5 0 0 1016.1 0 40.5 40.5 77.8 205.9 226.1 785.2
05/09 02:50 22.8 88 17.88 20.7 0 0 1016.1 0 38.8 39.1 74.3 196.3 214.3 744.1
05/09 02:40 22.7 88 17.78 20.6 0 0 1016.1 0 38.6 38.9 73.9 195.3 213.1 739.7
05/09 02:30 23 86 17.68 20.5 0 0 1016.1 0 38.3 38.6 73.1 193.3 210.7 731.4
05/09 02:20 23.8 87 18.71 21.5 0 0 1016.1 0 40.4 40.2 77.2 204.2 224.3 779.0
05/09 02:10 23.9 87 18.82 21.6 0 0 1016.1 0 40.7 40.4 77.6 205.3 225.7 783.9
05/09 02:00 23.7 87 18.61 21.4 0 0 1016.2 0 40.2 40.0 76.8 203.2 223.1 774.6
05/09 01:50 23.9 86 18.6 21.4 0 0 1016.2 0 40.2 39.9 76.6 202.6 222.3 772.0
05/09 01:40 24.1 86 18.82 21.6 2 4 1016.3 0 40.7 40.3 77.5 204.8 225.2 782.0
05/09 01:30 24.2 86 18.92 21.7 2 2 1016.3 0 40.9 40.4 77.8 205.8 226.4 786.3
05/09 01:20 24.3 85 18.81 21.6 2 4 1016.5 0 40.6 40.2 77.2 204.2 224.4 779.4
05/09 01:10 24.4 86 19.14 21.9 4 6 1016.6 0 41.3 40.7 78.7 208.1 229.3 796.4
05/09 01:00 24.5 85 19.02 21.8 4 7 1016.6 0 41.0 40.5 78.0 206.3 227.1 788.8
05/09 00:50 24.5 85 19.02 21.8 6 7 1016.6 0 41.0 40.5 78.0 206.3 227.1 788.8
05/09 00:40 24.6 85 19.13 21.9 6 7 1016.7 0 41.3 40.6 78.4 207.5 228.5 793.8
05/09 00:30 24.5 85 19.02 21.8 7 9 1016.9 0 41.0 40.5 78.0 206.4 227.2 789.0
05/09 00:20 24.5 85 19.02 21.8 6 7 1016.9 0 41.0 40.5 78.0 206.4 227.2 789.0
05/09 00:10 24.6 84 18.91 21.7 6 7 1016.8 0 40.8 40.2 77.4 204.7 225.1 781.9
05/09 00:00 24.7 84 19.01 21.8 6 7 1016.9 0 41.0 40.4 77.8 205.7 226.4 786.3
04/09 23:50 24.6 84 18.91 21.7 6 7 1016.9 0 40.8 40.2 77.4 204.7 225.1 782.0
04/09 23:40 24.5 84 18.8 21.6 6 7 1016.9 0 40.6 40.1 77.0 203.6 223.7 777.1
04/09 23:30 24.5 83 18.58 21.4 4 6 1016.9 0 40.1 39.6 75.9 200.8 220.3 765.2
04/09 23:20 24.5 83 18.58 21.4 4 6 1016.8 0 40.1 39.6 75.9 200.8 220.3 765.2
04/09 23:10 24.6 83 18.68 21.5 4 6 1016.8 0 40.3 39.8 76.3 201.8 221.6 769.5
04/09 23:00 24.7 82 18.56 21.4 6 7 1016.8 0 40.0 39.5 75.6 200.0 219.4 762.1
04/09 22:50 25 82 18.88 21.7 7 9 1016.7 0 40.7 40.0 76.8 203.2 223.5 776.1
04/09 22:40 24.9 81 18.54 21.4 6 9 1016.7 0 40.0 39.4 75.3 199.2 218.5 759.0
04/09 22:30 25.1 81 18.75 21.6 6 9 1016.7 0 40.4 39.7 76.1 201.3 221.2 768.1
04/09 22:20 25.2 80 18.62 21.5 7 13 1016.6 0 40.1 39.4 75.4 199.4 218.9 760.1
04/09 22:10 25.3 80 18.73 21.6 11 13 1016.6 0 40.3 39.5 75.8 200.5 220.2 765.0
04/09 22:00 25.4 80 18.83 21.7 11 17 1016.5 0 40.5 39.7 76.2 201.5 221.5 769.3
04/09 21:50 25.4 79 18.6 21.5 11 17 1016.5 0 40.0 39.2 75.1 198.6 217.9 757.0
04/09 21:40 25.4 77 18.13 21.1 9 15 1016.5 0 39.1 38.4 72.9 192.8 210.8 732.3
04/09 21:30 25.7 75 17.96 20.9 9 13 1016.4 0 38.7 37.9 71.9 190.0 207.4 720.5
04/09 21:20 25.9 74 17.92 20.9 11 15 1016.3 0 38.6 37.7 71.5 189.0 206.3 716.5
04/09 21:10 25.9 73 17.67 20.7 11 17 1016.2 0 38.0 37.3 70.3 186.0 202.6 703.6
04/09 21:00 25.9 71 17.19 20.2 9 13 1016.1 0 37.0 36.4 68.2 180.2 195.5 679.0
04/09 20:50 26.3 69 17.08 20.2 9 13 1015.9 0 36.7 36.0 67.3 178.0 192.9 669.8
04/09 20:40 26.5 67 16.77 19.9 9 15 1015.7 0 36.1 35.4 65.8 173.9 187.9 652.5
04/09 20:30 26.9 65 16.64 19.8 9 13 1015.5 0 35.8 35.0 64.9 171.4 185.0 642.6
04/09 20:20 27.1 65 16.82 20 11 15 1015.3 0 36.1 35.2 65.5 173.0 187.1 649.8
04/09 20:10 27.5 63 16.67 19.8 11 17 1015.2 0 35.8 34.8 64.5 170.4 184.0 639.0
04/09 20:00 27.9 62 16.77 19.9 13 20 1014.9 0 36.0 34.8 64.6 170.6 184.4 640.4
04/09 19:50 28.1 61 16.68 19.9 15 22 1014.7 0 35.8 34.6 64.0 169.2 182.6 634.3
04/09 19:40 28.3 59 16.31 19.5 13 19 1014.5 0 35.0 33.8 62.3 164.5 177.0 614.8
04/09 19:30 28.4 59 16.4 19.6 13 19 1014.4 0 35.1 33.9 62.6 165.3 178.0 618.3
04/09 19:20 28.8 59 16.77 20 13 20 1014.1 0 35.9 34.4 63.8 168.6 182.1 632.7
04/09 19:10 29.2 57 16.55 19.8 9 15 1013.9 0 35.4 33.9 62.5 165.2 178.1 618.9
04/09 19:00 29.4 57 16.73 20 7 11 1013.7 0 35.7 34.1 63.1 166.8 180.1 625.7
04/09 18:50 29.9 55 16.59 19.9 11 17 1013.4 0 35.4 33.6 62.1 164.1 177.0 615.0
04/09 18:40 30.7 52 16.38 19.7 15 20 1013.2 0 34.9 33.0 60.6 160.2 172.3 598.9
04/09 18:30 31.4 50 16.35 19.7 13 19 1012.9 0 34.8 32.7 59.9 158.4 170.4 592.1
04/09 18:20 31.9 48 16.12 19.5 13 17 1012.9 0 34.3 32.1 58.6 154.9 166.3 577.9
04/09 18:10 32.8 45 15.86 19.3 13 19 1012.8 0 33.7 31.4 56.9 150.5 161.0 559.7
04/09 18:00 34.2 33 12.52 15.6 6 9 1012.7 0 26.7 25.9 43.8 115.4 118.3 410.6
04/09 17:50 34.4 32 12.27 15.3 7 11 1012.6 0 26.2 25.5 42.8 112.9 115.2 399.7
04/09 17:40 34.6 33 12.78 16 9 11 1012.5 0 27.2 26.2 44.5 117.3 120.7 418.9
04/09 17:30 34.9 32 12.59 15.7 9 15 1012.4 0 26.8 25.8 43.6 115.1 118.1 409.8
04/09 17:20 35.1 31 12.33 15.4 6 9 1012.3 0 26.2 25.4 42.6 112.4 114.8 398.6
04/09 17:10 35 31 12.26 15.3 7 11 1012.2 0 26.1 25.3 42.5 111.9 114.2 396.3
04/09 17:00 34.4 31 11.88 14.8 7 11 1012.2 0 25.4 25.0 41.5 109.3 110.8 384.3
04/09 16:50 34.7 31 12.07 15.1 7 13 1012.2 0 25.7 25.2 42.0 110.6 112.5 390.3
04/09 16:40 35.3 30 12.05 15.1 9 13 1012.1 0 25.6 25.0 41.6 109.6 111.4 386.6
04/09 16:30 35.7 30 12.31 15.4 9 17 1012.1 0 26.2 25.2 42.3 111.4 113.8 394.8
04/09 16:20 34.6 31 12.01 15 7 15 1012.1 0 25.6 25.1 41.8 110.2 112.0 388.4
04/09 16:10 36.3 31 13.12 16.5 7 13 1012.1 0 27.8 26.2 44.7 117.9 121.9 423.5
04/09 16:00 36 30 12.5 15.7 7 13 1012.1 0 26.5 25.4 42.7 112.7 115.4 400.7
04/09 15:50 35.1 32 12.72 15.9 6 7 1012.2 0 27.0 25.9 44.0 116.0 119.2 413.9
04/09 15:40 34.4 33 12.65 15.8 4 13 1012.3 0 26.9 26.0 44.1 116.3 119.5 414.7
04/09 15:30 34.9 32 12.59 15.7 9 19 1012.3 0 26.8 25.8 43.6 115.1 118.0 409.8
04/09 15:20 36.1 29 12.14 15.2 11 19 1012.4 0 25.8 24.9 41.5 109.4 111.3 386.4
04/09 15:10 35.9 30 12.43 15.6 7 13 1012.5 0 26.4 25.3 42.6 112.3 114.8 398.6
04/09 15:00 35.7 31 12.72 15.9 6 13 1012.6 0 27.0 25.8 43.7 115.2 118.4 411.0
04/09 14:50 35.5 31 12.58 15.8 7 17 1012.8 0 26.7 25.7 43.3 114.2 117.1 406.5
04/09 14:40 35.8 31 12.78 16 9 19 1012.9 0 27.1 25.9 43.8 115.6 118.9 412.9
04/09 14:30 34.8 32 12.53 15.7 7 15 1013.1 0 26.7 25.8 43.5 114.7 117.6 408.1

Last Refresh: 05-Sep-2026 07:16:31

Bureau of Meteorology